createdAt,value
2022-11-10T10:02:15.487Z,6.78
2022-11-10T10:05:06.881Z,7.65
2022-11-10T10:07:59.776Z,8.48
2022-11-10T10:10:45.761Z,7.90
2022-11-10T10:13:37.066Z,8.27
2022-11-10T10:16:12.740Z,9.05
2022-11-10T10:18:51.703Z,7.35
2022-11-10T10:21:33.777Z,6.62
2022-11-10T10:24:13.779Z,7.28
2022-11-10T10:26:51.665Z,8.48
2022-11-10T10:29:48.242Z,7.95
2022-11-10T10:32:16.645Z,7.32
2022-11-10T10:34:44.832Z,7.10
2022-11-10T10:37:41.784Z,8.40
2022-11-10T10:40:14.207Z,7.87
2022-11-10T10:42:41.349Z,7.87
2022-11-10T10:45:29.235Z,8.55
2022-11-10T11:43:29.920Z,8.98
2022-11-10T11:46:16.978Z,7.43
2022-11-10T11:48:51.435Z,6.67
2022-11-10T11:51:37.595Z,6.87
2022-11-10T11:54:33.803Z,6.85
2022-11-10T11:57:24.507Z,8.02
2022-11-10T12:00:10.976Z,5.55
2022-11-10T12:03:01.518Z,6.43
2022-11-10T12:05:31.509Z,6.75
2022-11-10T12:08:06.470Z,6.30
2022-11-10T12:16:57.194Z,6.12
2022-11-10T12:19:51.367Z,5.80
2022-11-10T12:22:39.107Z,6.05
2022-11-10T12:25:30.859Z,6.10
2022-11-10T12:28:25.839Z,6.35
2022-11-10T12:31:01.461Z,5.72
2022-11-10T12:33:38.866Z,5.75
2022-11-10T12:36:08.820Z,5.53
2022-11-10T12:39:08.460Z,4.97
2022-11-10T12:41:40.177Z,5.82
2022-11-10T12:44:21.658Z,5.30
2022-11-10T12:46:52.254Z,5.30
2022-11-10T12:49:31.414Z,5.28
2022-11-10T12:52:15.907Z,5.28
2022-11-10T12:54:44.428Z,5.85
2022-11-10T12:57:18.585Z,4.80
2022-11-10T13:00:01.544Z,5.75
2022-11-10T13:02:41.218Z,4.93
2022-11-10T13:05:14.012Z,5.12
2022-11-10T13:07:47.203Z,5.62
2022-11-10T13:10:24.896Z,5.50
2022-11-10T13:13:18.083Z,5.30
2022-11-10T13:15:44.877Z,5.35
2022-11-10T13:20:39.010Z,5.40
2022-11-10T13:26:07.903Z,5.45
2022-11-10T13:28:47.112Z,5.50
2022-11-10T13:31:29.438Z,5.07
2022-11-10T13:34:14.568Z,4.57
2022-11-10T13:36:45.776Z,4.78
2022-11-10T13:39:17.048Z,5.50
2022-11-10T13:41:48.274Z,4.95
2022-11-10T13:44:36.337Z,5.15
2022-11-10T13:47:09.332Z,5.57
2022-11-10T13:49:50.341Z,5.30
2022-11-10T13:55:28.256Z,6.72
2022-11-10T14:00:49.481Z,6.47
2022-11-10T14:03:53.556Z,6.45
2022-11-10T14:06:40.500Z,6.60
2022-11-10T14:09:29.261Z,6.70
2022-11-10T14:12:07.891Z,6.12
2022-11-10T14:14:34.709Z,6.57
2022-11-10T14:19:34.438Z,6.60
2022-11-10T14:22:16.306Z,6.50
2022-11-10T14:24:54.315Z,6.55
2022-11-10T14:27:24.435Z,6.15
2022-11-10T14:30:09.116Z,6.30
2022-11-10T14:32:35.966Z,6.80
2022-11-10T14:37:29.862Z,6.28
2022-11-10T14:40:00.833Z,7.20
2022-11-10T14:42:30.722Z,6.28
2022-11-10T14:45:18.759Z,6.22
2022-11-10T14:47:55.117Z,5.82
2022-11-10T14:50:33.203Z,5.53
2022-11-10T14:53:07.590Z,6.22
2022-11-10T14:55:35.822Z,6.10
2022-11-10T14:58:13.627Z,6.35
2022-11-10T15:00:41.590Z,6.22
2022-11-10T15:03:11.871Z,6.25
2022-11-10T15:05:39.038Z,6.35
2022-11-10T15:08:06.368Z,6.22
2022-11-10T15:10:41.708Z,6.40
2022-11-10T15:13:14.460Z,6.62
2022-11-10T15:15:42.034Z,6.57
2022-11-10T15:18:26.189Z,6.30
2022-11-10T15:21:01.890Z,6.57
2022-11-10T15:23:36.607Z,6.78
2022-11-10T15:26:04.913Z,7.10
2022-11-10T15:28:36.362Z,6.68
2022-11-10T15:31:06.198Z,7.10
2022-11-10T15:33:35.196Z,7.00
2022-11-10T15:36:32.352Z,6.40
2022-11-10T15:39:20.271Z,6.90
2022-11-10T15:41:48.278Z,6.82
2022-11-10T15:44:24.577Z,6.62
2022-11-10T15:46:53.029Z,6.37
2022-11-10T15:49:30.835Z,6.57
2022-11-10T15:52:06.816Z,6.80
2022-11-10T15:54:35.447Z,6.03
2022-11-10T15:57:02.331Z,6.82
2022-11-10T15:59:29.798Z,6.57
2022-11-10T16:01:56.886Z,7.00
2022-11-10T16:04:27.145Z,6.90
2022-11-10T16:06:54.033Z,6.57
2022-11-10T16:09:21.020Z,6.72
2022-11-10T16:11:48.010Z,6.82
2022-11-10T16:14:16.167Z,6.28
2022-11-10T16:16:44.506Z,7.68
2022-11-10T16:19:12.091Z,6.72
2022-11-10T16:21:39.179Z,7.45
2022-11-10T16:24:06.398Z,7.50
2022-11-10T16:26:33.822Z,8.25
2022-11-10T16:29:00.751Z,7.90
2022-11-10T16:31:27.877Z,7.60
2022-11-10T16:33:54.694Z,7.18
2022-11-10T16:38:49.410Z,8.13
2022-11-10T16:41:16.548Z,8.60
2022-11-10T16:43:43.448Z,7.90
2022-11-10T16:46:24.909Z,7.53
2022-11-10T16:48:54.860Z,8.10
2022-11-10T16:51:31.364Z,8.40
2022-11-10T16:53:59.700Z,8.27
2022-11-10T16:56:27.464Z,8.95
2022-11-10T16:59:01.217Z,8.90
2022-11-10T17:01:29.739Z,8.57
2022-11-10T17:03:59.247Z,8.23
2022-11-10T17:06:27.886Z,8.27
2022-11-10T17:08:59.433Z,8.85
2022-11-10T17:11:26.724Z,8.98
2022-11-10T17:13:53.589Z,8.98
2022-11-10T17:18:49.466Z,8.80
2022-11-10T17:21:16.476Z,8.85
2022-11-10T17:23:43.360Z,9.55
2022-11-10T17:26:14.955Z,8.50
2022-11-10T17:28:42.846Z,8.60
2022-11-10T17:31:09.687Z,9.38
2022-11-10T17:36:05.248Z,9.63
2022-11-10T17:38:33.174Z,9.95
2022-11-10T17:41:00.088Z,10.25
2022-11-10T17:43:27.018Z,10.30
2022-11-10T17:45:53.878Z,10.45
2022-11-10T17:50:48.384Z,9.43
2022-11-10T17:53:23.823Z,9.55
2022-11-10T17:55:51.267Z,9.43
2022-11-10T17:58:18.495Z,9.27
2022-11-10T18:00:46.201Z,9.77
2022-11-10T18:03:18.265Z,10.50
2022-11-10T18:05:45.660Z,9.88
2022-11-10T18:08:13.585Z,10.02
2022-11-10T18:10:47.880Z,9.88
2022-11-10T18:13:15.261Z,9.82
2022-11-10T18:15:44.037Z,9.50
2022-11-10T18:18:15.228Z,8.95
2022-11-10T18:20:42.384Z,7.65
2022-11-10T18:23:11.696Z,8.82
2022-11-10T18:25:40.104Z,8.98
2022-11-10T18:28:07.186Z,8.40
2022-11-10T18:30:35.429Z,10.23
2022-11-10T18:33:03.332Z,7.93
2022-11-10T18:35:30.370Z,8.82
2022-11-10T18:37:58.357Z,8.60
2022-11-10T18:40:25.303Z,8.55
2022-11-10T18:42:56.861Z,8.65
2022-11-10T18:45:24.433Z,8.15
2022-11-10T18:47:51.927Z,9.52
2022-11-10T18:50:20.096Z,9.60
2022-11-10T18:52:47.030Z,9.05
2022-11-10T18:55:14.095Z,9.30
2022-11-10T18:57:41.012Z,9.88
2022-11-10T19:00:08.605Z,8.57
2022-11-10T19:02:35.537Z,8.55
2022-11-10T19:05:02.686Z,9.68
2022-11-10T19:07:30.920Z,8.77
2022-11-10T19:09:57.828Z,8.93
2022-11-10T19:12:26.755Z,9.10
2022-11-10T19:14:53.809Z,8.68
2022-11-10T19:17:20.725Z,8.35
2022-11-10T19:19:50.838Z,8.10
2022-11-10T19:22:20.540Z,8.95
2022-11-10T19:25:06.371Z,8.18
2022-11-10T19:27:34.243Z,8.98
2022-11-10T19:30:01.121Z,7.93
2022-11-10T19:34:55.828Z,8.38
2022-11-10T19:37:22.712Z,8.65
2022-11-10T19:39:49.563Z,8.18
2022-11-10T19:44:43.069Z,8.23
2022-11-10T19:49:38.791Z,6.68
2022-11-10T19:52:05.835Z,7.85
2022-11-10T19:54:32.675Z,7.55
2022-11-10T19:59:26.383Z,7.57
2022-11-10T20:04:20.808Z,7.30
2022-11-10T20:06:47.760Z,7.82
2022-11-10T20:09:14.678Z,7.47
2022-11-10T20:14:08.213Z,6.97
2022-11-10T20:19:01.775Z,7.10
2022-11-10T20:23:56.208Z,7.37
2022-11-10T20:26:24.228Z,7.40
2022-11-10T20:28:52.154Z,7.43
2022-11-10T20:31:22.296Z,8.00
2022-11-10T20:33:49.783Z,8.60
2022-11-10T20:36:27.947Z,8.27
2022-11-10T20:38:56.134Z,7.57
2022-11-10T20:41:25.458Z,7.30
2022-11-10T20:43:52.526Z,7.37
2022-11-10T20:49:08.189Z,8.55
2022-11-10T20:51:35.044Z,7.97
2022-11-10T20:56:30.084Z,7.28
2022-11-10T20:58:59.252Z,8.60
2022-11-10T21:01:26.331Z,8.15
2022-11-10T21:03:53.436Z,8.68
2022-11-10T21:06:20.341Z,9.63
2022-11-10T21:08:47.175Z,10.05
2022-11-10T21:14:01.660Z,8.82
2022-11-10T21:16:28.896Z,8.57
2022-11-10T21:18:56.752Z,8.73
2022-11-10T21:21:34.137Z,8.90
2022-11-10T21:26:28.289Z,9.27
2022-11-10T21:28:55.221Z,9.15
2022-11-10T21:31:22.066Z,8.57
2022-11-10T21:36:15.866Z,8.40
2022-11-10T21:38:46.498Z,8.55
2022-11-10T21:41:13.843Z,9.13
2022-11-10T21:43:41.290Z,9.30
2022-11-10T21:46:08.433Z,10.20
2022-11-10T21:48:35.625Z,11.02
2022-11-10T21:51:03.453Z,11.38
2022-11-10T21:53:30.738Z,10.75
2022-11-10T21:56:05.424Z,11.30
2022-11-10T21:58:35.228Z,11.63
2022-11-10T22:01:23.859Z,11.73
2022-11-10T22:03:50.826Z,11.40
2022-11-10T22:08:46.602Z,10.85
2022-11-10T22:11:34.223Z,10.80
2022-11-10T22:14:19.900Z,11.10
2022-11-10T22:17:09.753Z,10.65
2022-11-10T22:19:37.423Z,10.25
2022-11-10T22:22:04.575Z,11.32
2022-11-10T22:24:31.899Z,10.38
2022-11-10T22:27:03.641Z,10.48
2022-11-10T22:29:33.460Z,11.40
2022-11-10T22:32:01.043Z,11.05
2022-11-10T22:34:28.001Z,11.07
2022-11-10T22:36:54.850Z,10.73
2022-11-10T22:42:07.486Z,8.80
2022-11-10T22:44:34.452Z,9.90
2022-11-10T22:47:01.321Z,9.77
2022-11-10T22:51:55.623Z,7.97
2022-11-10T22:54:24.572Z,7.95
2022-11-10T22:56:52.099Z,8.23
2022-11-10T22:59:19.562Z,8.40
2022-11-10T23:01:46.615Z,7.90
2022-11-10T23:04:16.112Z,9.60
2022-11-10T23:06:43.672Z,8.00
2022-11-10T23:09:10.715Z,8.75
2022-11-10T23:11:37.617Z,8.52
2022-11-10T23:14:04.548Z,8.32
2022-11-10T23:16:34.718Z,8.75
2022-11-10T23:19:01.741Z,9.10
2022-11-10T23:21:30.539Z,7.90
2022-11-10T23:23:57.460Z,8.68
2022-11-10T23:26:34.102Z,7.93
2022-11-10T23:29:01.014Z,8.20
2022-11-10T23:31:28.769Z,8.38
2022-11-10T23:33:56.456Z,8.43
2022-11-10T23:36:24.877Z,7.43
2022-11-10T23:38:51.952Z,8.63
2022-11-10T23:41:20.874Z,8.10
2022-11-10T23:43:47.818Z,9.07
2022-11-10T23:46:15.097Z,7.80
2022-11-10T23:48:42.729Z,8.52
2022-11-10T23:51:12.185Z,8.35
2022-11-10T23:53:39.356Z,7.55
2022-11-10T23:56:10.573Z,8.45
2022-11-10T23:58:38.434Z,7.65
